sensor_id;sensor_type;location;lat;lon;timestamp;pressure;altitude;pressure_sealevel;temperature;humidity
14232;BME280;7200;52.194;9.900;2023-04-28T00:01:34;100377.81;;;8.79;100.00
14232;BME280;7200;52.194;9.900;2023-04-28T00:04:00;100405.66;;;8.86;100.00
14232;BME280;7200;52.194;9.900;2023-04-28T00:06:25;100421.19;;;8.95;100.00
14232;BME280;7200;52.194;9.900;2023-04-28T00:08:51;100369.53;;;8.93;100.00
14232;BME280;7200;52.194;9.900;2023-04-28T00:11:16;100367.81;;;8.90;100.00
14232;BME280;7200;52.194;9.900;2023-04-28T00:13:41;100342.91;;;8.74;100.00
14232;BME280;7200;52.194;9.900;2023-04-28T00:16:07;100317.13;;;8.57;100.00
14232;BME280;7200;52.194;9.900;2023-04-28T00:18:32;100325.09;;;8.54;100.00
14232;BME280;7200;52.194;9.900;2023-04-28T00:20:57;100341.38;;;8.67;100.00
14232;BME280;7200;52.194;9.900;2023-04-28T00:23:23;100377.34;;;8.94;100.00
14232;BME280;7200;52.194;9.900;2023-04-28T00:25:52;100365.41;;;8.84;100.00
14232;BME280;7200;52.194;9.900;2023-04-28T00:28:17;100355.75;;;8.83;100.00
14232;BME280;7200;52.194;9.900;2023-04-28T00:30:43;100339.75;;;8.63;100.00
14232;BME280;7200;52.194;9.900;2023-04-28T00:33:08;100380.44;;;8.79;100.00
14232;BME280;7200;52.194;9.900;2023-04-28T00:35:33;100375.63;;;8.93;100.00
14232;BME280;7200;52.194;9.900;2023-04-28T00:37:59;100386.41;;;9.14;100.00
14232;BME280;7200;52.194;9.900;2023-04-28T00:40:32;100368.41;;;9.28;100.00
14232;BME280;7200;52.194;9.900;2023-04-28T00:42:57;100335.63;;;9.10;100.00
14232;BME280;7200;52.194;9.900;2023-04-28T00:45:23;100354.78;;;9.15;100.00
14232;BME280;7200;52.194;9.900;2023-04-28T00:47:48;100338.91;;;9.17;100.00
14232;BME280;7200;52.194;9.900;2023-04-28T00:50:15;100345.72;;;9.24;100.00
14232;BME280;7200;52.194;9.900;2023-04-28T00:52:41;100340.91;;;9.37;100.00
14232;BME280;7200;52.194;9.900;2023-04-28T00:55:08;100334.28;;;9.52;100.00
14232;BME280;7200;52.194;9.900;2023-04-28T00:57:34;100314.63;;;9.35;100.00
14232;BME280;7200;52.194;9.900;2023-04-28T01:00:00;100322.66;;;9.32;100.00
14232;BME280;7200;52.194;9.900;2023-04-28T01:02:26;100308.59;;;9.32;100.00
14232;BME280;7200;52.194;9.900;2023-04-28T01:04:55;100321.72;;;9.33;100.00
14232;BME280;7200;52.194;9.900;2023-04-28T01:07:20;100300.25;;;9.19;100.00
14232;BME280;7200;52.194;9.900;2023-04-28T01:09:45;100306.66;;;9.12;100.00
14232;BME280;7200;52.194;9.900;2023-04-28T01:12:12;100347.28;;;9.30;100.00
14232;BME280;7200;52.194;9.900;2023-04-28T01:14:37;100312.56;;;9.19;100.00
14232;BME280;7200;52.194;9.900;2023-04-28T01:17:02;100335.09;;;9.27;100.00
14232;BME280;7200;52.194;9.900;2023-04-28T01:19:28;100329.66;;;9.32;100.00
14232;BME280;7200;52.194;9.900;2023-04-28T01:21:53;100330.28;;;9.40;100.00
14232;BME280;7200;52.194;9.900;2023-04-28T01:24:19;100340.41;;;9.52;100.00
14232;BME280;7200;52.194;9.900;2023-04-28T01:26:44;100329.81;;;9.54;100.00
14232;BME280;7200;52.194;9.900;2023-04-28T01:29:10;100352.25;;;9.66;100.00
14232;BME280;7200;52.194;9.900;2023-04-28T01:31:35;100310.72;;;9.47;100.00
14232;BME280;7200;52.194;9.900;2023-04-28T01:34:01;100357.72;;;9.60;100.00
14232;BME280;7200;52.194;9.900;2023-04-28T01:36:26;100340.69;;;9.70;100.00
14232;BME280;7200;52.194;9.900;2023-04-28T01:38:52;100331.28;;;9.63;100.00
14232;BME280;7200;52.194;9.900;2023-04-28T01:41:18;100304.72;;;9.44;100.00
14232;BME280;7200;52.194;9.900;2023-04-28T01:43:43;100310.63;;;9.24;100.00
14232;BME280;7200;52.194;9.900;2023-04-28T01:46:09;100330.16;;;9.16;100.00
14232;BME280;7200;52.194;9.900;2023-04-28T01:48:34;100346.28;;;9.06;100.00
14232;BME280;7200;52.194;9.900;2023-04-28T01:51:00;100374.53;;;9.29;100.00
14232;BME280;7200;52.194;9.900;2023-04-28T01:53:25;100363.13;;;9.28;100.00
14232;BME280;7200;52.194;9.900;2023-04-28T01:55:50;100359.69;;;9.26;100.00
14232;BME280;7200;52.194;9.900;2023-04-28T01:58:16;100340.25;;;9.02;100.00
14232;BME280;7200;52.194;9.900;2023-04-28T02:00:41;100362.38;;;8.96;100.00
14232;BME280;7200;52.194;9.900;2023-04-28T02:03:06;100371.63;;;9.10;100.00
14232;BME280;7200;52.194;9.900;2023-04-28T02:05:31;100347.59;;;8.92;100.00
14232;BME280;7200;52.194;9.900;2023-04-28T02:07:57;100344.31;;;8.86;100.00
14232;BME280;7200;52.194;9.900;2023-04-28T02:10:23;100317.06;;;8.87;100.00
14232;BME280;7200;52.194;9.900;2023-04-28T02:12:48;100280.34;;;8.84;100.00
14232;BME280;7200;52.194;9.900;2023-04-28T02:15:13;100281.44;;;8.76;100.00
14232;BME280;7200;52.194;9.900;2023-04-28T02:17:39;100291.66;;;8.87;100.00
14232;BME280;7200;52.194;9.900;2023-04-28T02:20:05;100295.50;;;9.04;100.00
14232;BME280;7200;52.194;9.900;2023-04-28T02:22:30;100237.31;;;8.58;100.00
14232;BME280;7200;52.194;9.900;2023-04-28T02:24:56;100275.59;;;8.68;100.00
14232;BME280;7200;52.194;9.900;2023-04-28T02:27:21;100257.50;;;8.57;100.00
14232;BME280;7200;52.194;9.900;2023-04-28T02:29:47;100279.53;;;8.53;100.00
14232;BME280;7200;52.194;9.900;2023-04-28T02:32:12;100270.25;;;8.42;100.00
14232;BME280;7200;52.194;9.900;2023-04-28T02:34:37;100303.13;;;8.55;100.00
14232;BME280;7200;52.194;9.900;2023-04-28T02:37:02;100280.66;;;8.45;100.00
14232;BME280;7200;52.194;9.900;2023-04-28T02:39:28;100298.13;;;8.47;100.00
14232;BME280;7200;52.194;9.900;2023-04-28T02:41:55;100284.97;;;8.47;100.00
14232;BME280;7200;52.194;9.900;2023-04-28T02:44:20;100259.81;;;8.38;100.00
14232;BME280;7200;52.194;9.900;2023-04-28T02:46:46;100258.59;;;8.50;100.00
14232;BME280;7200;52.194;9.900;2023-04-28T02:49:11;100269.88;;;8.54;100.00
14232;BME280;7200;52.194;9.900;2023-04-28T02:51:38;100233.88;;;8.26;100.00
14232;BME280;7200;52.194;9.900;2023-04-28T02:54:03;100253.91;;;8.30;100.00
14232;BME280;7200;52.194;9.900;2023-04-28T02:56:29;100286.47;;;8.56;100.00
14232;BME280;7200;52.194;9.900;2023-04-28T02:58:54;100252.97;;;8.63;100.00
14232;BME280;7200;52.194;9.900;2023-04-28T03:01:20;100234.72;;;8.56;100.00
14232;BME280;7200;52.194;9.900;2023-04-28T03:03:45;100226.31;;;8.45;100.00
14232;BME280;7200;52.194;9.900;2023-04-28T03:06:11;100212.88;;;8.25;100.00
14232;BME280;7200;52.194;9.900;2023-04-28T03:08:36;100228.50;;;8.31;100.00
14232;BME280;7200;52.194;9.900;2023-04-28T03:11:01;100178.88;;;7.90;100.00
14232;BME280;7200;52.194;9.900;2023-04-28T03:13:26;100232.59;;;8.10;100.00
14232;BME280;7200;52.194;9.900;2023-04-28T03:15:53;100232.59;;;8.10;100.00
14232;BME280;7200;52.194;9.900;2023-04-28T03:18:19;100230.84;;;8.10;100.00
14232;BME280;7200;52.194;9.900;2023-04-28T03:20:44;100221.97;;;8.14;100.00
14232;BME280;7200;52.194;9.900;2023-04-28T03:23:10;100208.06;;;8.11;100.00
14232;BME280;7200;52.194;9.900;2023-04-28T03:25:35;100213.31;;;8.11;100.00
14232;BME280;7200;52.194;9.900;2023-04-28T03:28:00;100191.72;;;8.01;100.00
14232;BME280;7200;52.194;9.900;2023-04-28T03:30:26;100194.56;;;7.93;100.00
14232;BME280;7200;52.194;9.900;2023-04-28T03:32:52;100175.53;;;7.85;100.00
14232;BME280;7200;52.194;9.900;2023-04-28T03:35:23;100194.03;;;7.82;100.00
14232;BME280;7200;52.194;9.900;2023-04-28T03:37:49;100196.72;;;7.79;100.00
14232;BME280;7200;52.194;9.900;2023-04-28T03:40:14;100215.81;;;7.86;100.00
14232;BME280;7200;52.194;9.900;2023-04-28T03:42:40;100214.06;;;7.85;100.00
14232;BME280;7200;52.194;9.900;2023-04-28T03:45:06;100191.72;;;7.70;100.00
14232;BME280;7200;52.194;9.900;2023-04-28T03:47:32;100195.13;;;7.73;100.00
14232;BME280;7200;52.194;9.900;2023-04-28T03:49:57;100163.22;;;7.57;100.00
14232;BME280;7200;52.194;9.900;2023-04-28T03:52:23;100142.19;;;7.26;100.00
14232;BME280;7200;52.194;9.900;2023-04-28T03:54:48;100170.28;;;7.22;100.00
14232;BME280;7200;52.194;9.900;2023-04-28T03:57:14;100203.78;;;7.46;100.00
14232;BME280;7200;52.194;9.900;2023-04-28T03:59:39;100208.72;;;7.56;100.00
14232;BME280;7200;52.194;9.900;2023-04-28T04:02:04;100195.56;;;7.58;100.00
14232;BME280;7200;52.194;9.900;2023-04-28T04:04:29;100217.56;;;7.85;100.00
14232;BME280;7200;52.194;9.900;2023-04-28T04:06:55;100199.72;;;7.96;100.00
14232;BME280;7200;52.194;9.900;2023-04-28T04:09:20;100167.06;;;7.75;100.00
14232;BME280;7200;52.194;9.900;2023-04-28T04:11:46;100180.13;;;7.78;100.00
14232;BME280;7200;52.194;9.900;2023-04-28T04:14:11;100206.66;;;7.99;100.00
14232;BME280;7200;52.194;9.900;2023-04-28T04:16:36;100212.47;;;8.10;100.00
14232;BME280;7200;52.194;9.900;2023-04-28T04:19:01;100202.72;;;8.14;100.00
14232;BME280;7200;52.194;9.900;2023-04-28T04:21:27;100203.84;;;8.35;100.00
14232;BME280;7200;52.194;9.900;2023-04-28T04:23:52;100206.91;;;8.49;100.00
14232;BME280;7200;52.194;9.900;2023-04-28T04:26:17;100165.28;;;8.34;100.00
14232;BME280;7200;52.194;9.900;2023-04-28T04:28:43;100178.63;;;8.28;100.00
14232;BME280;7200;52.194;9.900;2023-04-28T04:31:08;100188.94;;;8.34;100.00
14232;BME280;7200;52.194;9.900;2023-04-28T04:33:34;100192.63;;;8.58;100.00
14232;BME280;7200;52.194;9.900;2023-04-28T04:35:59;100186.38;;;8.61;100.00
14232;BME280;7200;52.194;9.900;2023-04-28T04:38:24;100178.88;;;8.76;100.00
14232;BME280;7200;52.194;9.900;2023-04-28T04:40:50;100182.72;;;8.93;100.00
14232;BME280;7200;52.194;9.900;2023-04-28T04:43:15;100148.81;;;8.84;100.00
14232;BME280;7200;52.194;9.900;2023-04-28T04:45:40;100151.75;;;8.74;100.00
14232;BME280;7200;52.194;9.900;2023-04-28T04:48:06;100184.13;;;8.76;100.00
14232;BME280;7200;52.194;9.900;2023-04-28T04:50:31;100203.84;;;8.90;100.00
14232;BME280;7200;52.194;9.900;2023-04-28T04:52:56;100206.31;;;8.94;100.00
14232;BME280;7200;52.194;9.900;2023-04-28T04:55:22;100199.84;;;9.05;100.00
14232;BME280;7200;52.194;9.900;2023-04-28T04:57:47;100185.91;;;9.03;100.00
14232;BME280;7200;52.194;9.900;2023-04-28T05:00:13;100160.28;;;8.81;100.00
14232;BME280;7200;52.194;9.900;2023-04-28T05:02:39;100160.66;;;8.70;100.00
14232;BME280;7200;52.194;9.900;2023-04-28T05:05:05;100206.03;;;8.77;100.00
14232;BME280;7200;52.194;9.900;2023-04-28T05:07:30;100210.94;;;8.88;100.00
14232;BME280;7200;52.194;9.900;2023-04-28T05:09:56;100213.09;;;9.02;100.00
14232;BME280;7200;52.194;9.900;2023-04-28T05:12:21;100189.81;;;9.16;100.00
14232;BME280;7200;52.194;9.900;2023-04-28T05:14:47;100198.50;;;9.43;100.00
14232;BME280;7200;52.194;9.900;2023-04-28T05:17:12;100196.69;;;9.70;100.00
14232;BME280;7200;52.194;9.900;2023-04-28T05:19:37;100172.44;;;9.61;100.00
14232;BME280;7200;52.194;9.900;2023-04-28T05:22:02;100171.84;;;9.52;100.00
14232;BME280;7200;52.194;9.900;2023-04-28T05:24:28;100134.31;;;9.22;100.00
14232;BME280;7200;52.194;9.900;2023-04-28T05:26:57;100176.72;;;9.14;100.00
14232;BME280;7200;52.194;9.900;2023-04-28T05:29:22;100190.09;;;9.08;100.00
14232;BME280;7200;52.194;9.900;2023-04-28T05:31:47;100216.28;;;9.11;100.00
14232;BME280;7200;52.194;9.900;2023-04-28T05:34:13;100221.28;;;9.19;100.00
14232;BME280;7200;52.194;9.900;2023-04-28T05:36:38;100243.94;;;9.50;100.00
14232;BME280;7200;52.194;9.900;2023-04-28T05:39:09;100237.53;;;9.57;100.00
14232;BME280;7200;52.194;9.900;2023-04-28T05:41:35;100216.25;;;9.63;100.00
14232;BME280;7200;52.194;9.900;2023-04-28T05:44:01;100195.19;;;9.63;100.00
14232;BME280;7200;52.194;9.900;2023-04-28T05:46:26;100202.63;;;9.75;100.00
14232;BME280;7200;52.194;9.900;2023-04-28T05:48:51;100209.84;;;9.94;100.00
14232;BME280;7200;52.194;9.900;2023-04-28T05:51:17;100198.72;;;10.09;100.00
14232;BME280;7200;52.194;9.900;2023-04-28T05:53:42;100177.34;;;10.17;100.00
14232;BME280;7200;52.194;9.900;2023-04-28T05:56:07;100190.91;;;10.30;100.00
14232;BME280;7200;52.194;9.900;2023-04-28T05:58:33;100182.25;;;10.50;100.00
14232;BME280;7200;52.194;9.900;2023-04-28T06:00:58;100116.78;;;10.38;100.00
14232;BME280;7200;52.194;9.900;2023-04-28T06:03:24;100158.69;;;10.45;100.00
14232;BME280;7200;52.194;9.900;2023-04-28T06:05:49;100154.53;;;10.40;100.00
14232;BME280;7200;52.194;9.900;2023-04-28T06:08:14;100135.63;;;10.28;100.00
14232;BME280;7200;52.194;9.900;2023-04-28T06:10:40;100170.84;;;10.49;100.00
14232;BME280;7200;52.194;9.900;2023-04-28T06:13:05;100167.22;;;10.52;100.00
14232;BME280;7200;52.194;9.900;2023-04-28T06:15:31;100195.53;;;10.69;100.00
14232;BME280;7200;52.194;9.900;2023-04-28T06:17:57;100187.25;;;10.78;100.00
14232;BME280;7200;52.194;9.900;2023-04-28T06:20:23;100187.00;;;10.84;100.00
14232;BME280;7200;52.194;9.900;2023-04-28T06:22:48;100189.97;;;10.97;100.00
14232;BME280;7200;52.194;9.900;2023-04-28T06:25:13;100165.38;;;10.97;100.00
14232;BME280;7200;52.194;9.900;2023-04-28T06:27:39;100191.91;;;11.14;100.00
14232;BME280;7200;52.194;9.900;2023-04-28T06:30:05;100194.16;;;11.23;100.00
14232;BME280;7200;52.194;9.900;2023-04-28T06:32:30;100192.03;;;11.52;100.00
14232;BME280;7200;52.194;9.900;2023-04-28T06:34:55;100166.50;;;11.72;100.00
14232;BME280;7200;52.194;9.900;2023-04-28T06:37:21;100154.63;;;11.80;100.00
14232;BME280;7200;52.194;9.900;2023-04-28T06:39:46;100168.19;;;11.93;100.00
14232;BME280;7200;52.194;9.900;2023-04-28T06:42:11;100147.81;;;11.95;100.00
14232;BME280;7200;52.194;9.900;2023-04-28T06:44:37;100137.84;;;12.02;100.00
14232;BME280;7200;52.194;9.900;2023-04-28T06:47:02;100147.31;;;12.06;100.00
14232;BME280;7200;52.194;9.900;2023-04-28T06:49:27;100135.25;;;12.00;100.00
14232;BME280;7200;52.194;9.900;2023-04-28T06:51:53;100189.81;;;12.39;100.00
14232;BME280;7200;52.194;9.900;2023-04-28T06:54:18;100118.81;;;12.66;100.00
14232;BME280;7200;52.194;9.900;2023-04-28T06:56:43;100064.06;;;12.84;100.00
14232;BME280;7200;52.194;9.900;2023-04-28T06:59:09;100005.78;;;12.69;100.00
14232;BME280;7200;52.194;9.900;2023-04-28T07:01:34;100016.69;;;12.27;100.00
14232;BME280;7200;52.194;9.900;2023-04-28T07:03:59;100051.56;;;12.36;100.00
14232;BME280;7200;52.194;9.900;2023-04-28T07:06:24;100067.19;;;12.93;100.00
14232;BME280;7200;52.194;9.900;2023-04-28T07:08:51;100030.81;;;12.79;100.00
14232;BME280;7200;52.194;9.900;2023-04-28T07:11:17;100007.00;;;12.79;100.00
14232;BME280;7200;52.194;9.900;2023-04-28T07:13:42;99997.38;;;12.43;100.00
14232;BME280;7200;52.194;9.900;2023-04-28T07:16:07;100017.84;;;12.22;100.00
14232;BME280;7200;52.194;9.900;2023-04-28T07:18:34;100097.72;;;12.48;100.00
14232;BME280;7200;52.194;9.900;2023-04-28T07:20:59;100077.63;;;12.43;100.00
14232;BME280;7200;52.194;9.900;2023-04-28T07:23:25;100063.63;;;12.41;100.00
14232;BME280;7200;52.194;9.900;2023-04-28T07:25:50;100023.84;;;12.43;100.00
14232;BME280;7200;52.194;9.900;2023-04-28T07:28:15;100008.59;;;12.31;100.00
14232;BME280;7200;52.194;9.900;2023-04-28T07:30:41;100028.81;;;12.32;100.00
14232;BME280;7200;52.194;9.900;2023-04-28T07:33:06;100028.59;;;12.54;100.00
14232;BME280;7200;52.194;9.900;2023-04-28T07:35:32;100045.41;;;12.70;100.00
14232;BME280;7200;52.194;9.900;2023-04-28T07:37:57;100036.69;;;12.68;100.00
14232;BME280;7200;52.194;9.900;2023-04-28T07:40:23;100060.22;;;13.08;100.00
14232;BME280;7200;52.194;9.900;2023-04-28T07:42:48;100066.25;;;13.27;100.00
14232;BME280;7200;52.194;9.900;2023-04-28T07:45:14;100045.56;;;13.18;100.00
14232;BME280;7200;52.194;9.900;2023-04-28T07:47:40;100082.59;;;13.69;100.00
14232;BME280;7200;52.194;9.900;2023-04-28T07:50:06;100028.28;;;13.76;100.00
14232;BME280;7200;52.194;9.900;2023-04-28T07:52:32;99957.47;;;13.94;100.00
14232;BME280;7200;52.194;9.900;2023-04-28T07:54:58;99969.16;;;13.90;100.00
14232;BME280;7200;52.194;9.900;2023-04-28T07:57:24;99963.78;;;13.91;100.00
14232;BME280;7200;52.194;9.900;2023-04-28T07:59:49;99962.03;;;13.60;100.00
14232;BME280;7200;52.194;9.900;2023-04-28T08:02:15;100006.41;;;13.72;100.00
14232;BME280;7200;52.194;9.900;2023-04-28T08:04:40;99963.22;;;13.38;100.00
14232;BME280;7200;52.194;9.900;2023-04-28T08:07:07;100044.97;;;13.78;100.00
14232;BME280;7200;52.194;9.900;2023-04-28T08:09:33;100002.91;;;13.72;100.00
14232;BME280;7200;52.194;9.900;2023-04-28T08:11:59;99999.72;;;13.81;100.00
14232;BME280;7200;52.194;9.900;2023-04-28T08:14:24;99994.91;;;14.04;100.00
14232;BME280;7200;52.194;9.900;2023-04-28T08:16:50;100069.16;;;14.19;100.00
14232;BME280;7200;52.194;9.900;2023-04-28T08:19:15;100047.44;;;14.13;100.00
14232;BME280;7200;52.194;9.900;2023-04-28T08:21:41;100019.47;;;14.07;100.00
14232;BME280;7200;52.194;9.900;2023-04-28T08:24:06;100060.38;;;14.33;100.00
14232;BME280;7200;52.194;9.900;2023-04-28T08:26:32;99996.06;;;14.14;100.00
14232;BME280;7200;52.194;9.900;2023-04-28T08:28:58;100016.94;;;14.20;100.00
14232;BME280;7200;52.194;9.900;2023-04-28T08:31:23;100001.66;;;14.39;100.00
14232;BME280;7200;52.194;9.900;2023-04-28T08:33:49;100057.31;;;14.41;100.00
14232;BME280;7200;52.194;9.900;2023-04-28T08:36:18;100060.88;;;14.40;100.00
14232;BME280;7200;52.194;9.900;2023-04-28T08:38:44;100058.63;;;14.64;100.00
14232;BME280;7200;52.194;9.900;2023-04-28T08:41:13;99969.03;;;14.68;100.00
14232;BME280;7200;52.194;9.900;2023-04-28T08:43:39;99998.09;;;14.55;100.00
14232;BME280;7200;52.194;9.900;2023-04-28T08:46:07;99999.00;;;14.39;100.00
14232;BME280;7200;52.194;9.900;2023-04-28T08:48:40;100033.94;;;14.92;100.00
14232;BME280;7200;52.194;9.900;2023-04-28T08:51:07;100029.94;;;14.99;100.00
14232;BME280;7200;52.194;9.900;2023-04-28T08:53:36;100029.34;;;14.66;100.00
14232;BME280;7200;52.194;9.900;2023-04-28T08:56:04;100063.69;;;14.83;100.00
14232;BME280;7200;52.194;9.900;2023-04-28T08:58:30;100017.50;;;14.55;100.00
14232;BME280;7200;52.194;9.900;2023-04-28T09:00:55;100042.63;;;14.66;100.00
14232;BME280;7200;52.194;9.900;2023-04-28T09:03:21;100015.41;;;15.19;100.00
14232;BME280;7200;52.194;9.900;2023-04-28T09:05:46;100021.56;;;14.91;100.00
14232;BME280;7200;52.194;9.900;2023-04-28T09:08:13;99996.63;;;14.79;100.00
14232;BME280;7200;52.194;9.900;2023-04-28T09:10:38;100028.31;;;14.83;100.00
14232;BME280;7200;52.194;9.900;2023-04-28T09:13:04;100046.34;;;15.06;100.00
14232;BME280;7200;52.194;9.900;2023-04-28T09:17:59;100068.66;;;15.75;100.00
14232;BME280;7200;52.194;9.900;2023-04-28T09:20:26;100053.72;;;15.87;100.00
14232;BME280;7200;52.194;9.900;2023-04-28T09:22:53;100055.00;;;16.09;100.00
14232;BME280;7200;52.194;9.900;2023-04-28T09:25:20;99911.44;;;15.38;100.00
14232;BME280;7200;52.194;9.900;2023-04-28T09:27:47;99994.09;;;15.63;100.00
14232;BME280;7200;52.194;9.900;2023-04-28T09:30:13;99954.28;;;15.19;100.00
14232;BME280;7200;52.194;9.900;2023-04-28T09:32:39;99956.53;;;15.40;100.00
14232;BME280;7200;52.194;9.900;2023-04-28T09:35:04;100037.88;;;15.71;100.00
14232;BME280;7200;52.194;9.900;2023-04-28T09:37:32;100067.06;;;16.00;100.00
14232;BME280;7200;52.194;9.900;2023-04-28T09:40:04;100079.38;;;16.15;100.00
14232;BME280;7200;52.194;9.900;2023-04-28T09:42:39;100048.44;;;16.27;100.00
14232;BME280;7200;52.194;9.900;2023-04-28T09:47:37;99980.88;;;16.03;100.00
14232;BME280;7200;52.194;9.900;2023-04-28T09:50:10;100009.38;;;16.28;100.00
14232;BME280;7200;52.194;9.900;2023-04-28T09:52:40;100052.78;;;16.68;100.00
14232;BME280;7200;52.194;9.900;2023-04-28T09:55:06;99988.22;;;16.39;100.00
14232;BME280;7200;52.194;9.900;2023-04-28T09:57:36;99941.97;;;16.14;100.00
14232;BME280;7200;52.194;9.900;2023-04-28T10:00:03;99988.09;;;16.41;100.00
14232;BME280;7200;52.194;9.900;2023-04-28T10:02:34;99959.84;;;16.25;100.00
14232;BME280;7200;52.194;9.900;2023-04-28T10:05:00;99990.00;;;16.39;100.00
14232;BME280;7200;52.194;9.900;2023-04-28T10:07:26;100049.75;;;17.00;100.00
14232;BME280;7200;52.194;9.900;2023-04-28T10:09:52;99987.34;;;16.51;100.00
14232;BME280;7200;52.194;9.900;2023-04-28T10:12:23;100036.28;;;16.63;100.00
14232;BME280;7200;52.194;9.900;2023-04-28T10:14:50;100011.34;;;16.77;100.00
14232;BME280;7200;52.194;9.900;2023-04-28T10:17:22;100029.38;;;16.73;100.00
14232;BME280;7200;52.194;9.900;2023-04-28T10:19:53;100015.31;;;16.71;100.00
14232;BME280;7200;52.194;9.900;2023-04-28T10:25:18;100037.31;;;16.48;100.00
14232;BME280;7200;52.194;9.900;2023-04-28T10:27:49;100012.69;;;16.84;100.00
14232;BME280;7200;52.194;9.900;2023-04-28T10:30:17;100005.84;;;16.27;100.00
14232;BME280;7200;52.194;9.900;2023-04-28T10:32:43;99982.34;;;15.94;100.00
14232;BME280;7200;52.194;9.900;2023-04-28T10:38:07;100021.44;;;15.79;100.00
14232;BME280;7200;52.194;9.900;2023-04-28T10:42:58;100064.50;;;15.99;100.00
14232;BME280;7200;52.194;9.900;2023-04-28T10:48:18;100077.84;;;16.26;100.00
14232;BME280;7200;52.194;9.900;2023-04-28T10:56:18;99980.75;;;16.44;100.00
14232;BME280;7200;52.194;9.900;2023-04-28T10:58:49;99948.78;;;15.79;100.00
14232;BME280;7200;52.194;9.900;2023-04-28T11:01:23;99998.66;;;15.61;100.00
14232;BME280;7200;52.194;9.900;2023-04-28T11:03:53;100081.19;;;15.73;100.00
14232;BME280;7200;52.194;9.900;2023-04-28T11:09:00;100136.66;;;15.51;100.00
14232;BME280;7200;52.194;9.900;2023-04-28T11:13:54;100161.06;;;15.72;100.00
14232;BME280;7200;52.194;9.900;2023-04-28T11:16:22;100147.53;;;15.76;100.00
14232;BME280;7200;52.194;9.900;2023-04-28T11:18:55;100129.22;;;15.99;100.00
14232;BME280;7200;52.194;9.900;2023-04-28T11:21:23;100113.78;;;16.19;100.00
14232;BME280;7200;52.194;9.900;2023-04-28T11:23:49;100098.34;;;16.51;100.00
14232;BME280;7200;52.194;9.900;2023-04-28T11:26:15;100061.09;;;16.64;100.00
14232;BME280;7200;52.194;9.900;2023-04-28T11:28:55;99985.31;;;16.42;100.00
14232;BME280;7200;52.194;9.900;2023-04-28T11:31:22;100059.72;;;16.58;100.00
14232;BME280;7200;52.194;9.900;2023-04-28T11:34:01;100072.19;;;16.70;100.00
14232;BME280;7200;52.194;9.900;2023-04-28T11:36:36;100046.44;;;16.84;100.00
14232;BME280;7200;52.194;9.900;2023-04-28T11:39:06;100087.19;;;17.11;100.00
14232;BME280;7200;52.194;9.900;2023-04-28T11:41:36;100054.25;;;17.00;100.00
14232;BME280;7200;52.194;9.900;2023-04-28T11:46:43;100062.03;;;17.03;100.00
14232;BME280;7200;52.194;9.900;2023-04-28T11:49:10;100017.47;;;16.92;100.00
14232;BME280;7200;52.194;9.900;2023-04-28T11:51:37;100015.56;;;16.94;100.00
14232;BME280;7200;52.194;9.900;2023-04-28T11:54:06;99978.41;;;17.29;100.00
14232;BME280;7200;52.194;9.900;2023-04-28T11:56:37;99981.00;;;17.79;100.00
14232;BME280;7200;52.194;9.900;2023-04-28T11:59:05;100011.34;;;17.78;100.00
14232;BME280;7200;52.194;9.900;2023-04-28T12:01:32;100002.69;;;17.50;100.00
14232;BME280;7200;52.194;9.900;2023-04-28T12:03:58;99960.75;;;17.77;100.00
14232;BME280;7200;52.194;9.900;2023-04-28T12:06:24;99922.19;;;17.81;100.00
14232;BME280;7200;52.194;9.900;2023-04-28T12:08:49;99873.97;;;17.60;100.00
14232;BME280;7200;52.194;9.900;2023-04-28T12:11:16;99910.00;;;17.41;100.00
14232;BME280;7200;52.194;9.900;2023-04-28T12:13:43;99940.00;;;16.82;100.00
14232;BME280;7200;52.194;9.900;2023-04-28T12:16:08;99944.97;;;16.48;100.00
14232;BME280;7200;52.194;9.900;2023-04-28T12:18:37;99971.28;;;16.53;100.00
14232;BME280;7200;52.194;9.900;2023-04-28T12:21:03;99968.47;;;16.29;100.00
14232;BME280;7200;52.194;9.900;2023-04-28T12:25:56;100107.38;;;16.35;100.00
14232;BME280;7200;52.194;9.900;2023-04-28T12:28:21;100073.16;;;16.29;100.00
14232;BME280;7200;52.194;9.900;2023-04-28T12:30:47;100025.59;;;16.10;100.00
14232;BME280;7200;52.194;9.900;2023-04-28T12:33:23;100091.81;;;16.42;100.00
14232;BME280;7200;52.194;9.900;2023-04-28T12:35:52;100053.19;;;16.09;100.00
14232;BME280;7200;52.194;9.900;2023-04-28T12:38:19;100085.53;;;16.16;100.00
14232;BME280;7200;52.194;9.900;2023-04-28T12:40:44;100056.63;;;15.97;100.00
14232;BME280;7200;52.194;9.900;2023-04-28T12:43:09;100037.47;;;15.63;100.00
14232;BME280;7200;52.194;9.900;2023-04-28T12:45:35;100070.06;;;15.81;100.00
14232;BME280;7200;52.194;9.900;2023-04-28T12:48:00;100042.75;;;15.50;100.00
14232;BME280;7200;52.194;9.900;2023-04-28T12:50:26;100069.69;;;15.58;100.00
14232;BME280;7200;52.194;9.900;2023-04-28T12:52:53;100043.50;;;15.24;100.00
14232;BME280;7200;52.194;9.900;2023-04-28T12:55:20;100067.91;;;15.73;100.00
14232;BME280;7200;52.194;9.900;2023-04-28T12:57:45;100059.91;;;15.59;100.00
14232;BME280;7200;52.194;9.900;2023-04-28T13:00:11;100089.72;;;15.64;100.00
14232;BME280;7200;52.194;9.900;2023-04-28T13:02:38;100066.63;;;15.65;100.00
14232;BME280;7200;52.194;9.900;2023-04-28T13:05:04;100078.50;;;15.88;100.00
14232;BME280;7200;52.194;9.900;2023-04-28T13:07:30;100053.28;;;15.81;100.00
14232;BME280;7200;52.194;9.900;2023-04-28T13:09:56;100070.16;;;15.80;100.00
14232;BME280;7200;52.194;9.900;2023-04-28T13:12:21;100060.66;;;15.61;100.00
14232;BME280;7200;52.194;9.900;2023-04-28T13:14:48;100058.13;;;15.60;100.00
14232;BME280;7200;52.194;9.900;2023-04-28T13:17:15;100067.88;;;15.59;100.00
14232;BME280;7200;52.194;9.900;2023-04-28T13:19:40;100034.69;;;15.37;100.00
14232;BME280;7200;52.194;9.900;2023-04-28T13:22:06;100060.47;;;15.64;100.00